createdAt,value
2022-10-17T00:00:57.708Z,100998.81
2022-10-17T00:03:27.564Z,100998.28
2022-10-17T00:05:55.375Z,100999.97
2022-10-17T00:08:23.248Z,101001.63
2022-10-17T00:11:03.112Z,100992.94
2022-10-17T00:15:59.292Z,100998.56
2022-10-17T00:18:26.732Z,100987.47
2022-10-17T00:20:54.137Z,100988.16
2022-10-17T00:23:21.759Z,100983.91
2022-10-17T00:25:58.500Z,100984.25
2022-10-17T00:28:26.060Z,100969.72
2022-10-17T00:31:02.097Z,100966.00
2022-10-17T00:33:31.070Z,100969.72
2022-10-17T00:36:13.655Z,100968.06
2022-10-17T00:38:45.423Z,100963.03
2022-10-17T00:41:15.383Z,100949.75
2022-10-17T00:44:04.705Z,100950.16
2022-10-17T00:46:36.827Z,100962.06
2022-10-17T00:49:11.033Z,100952.72
2022-10-17T00:51:45.315Z,100947.50
2022-10-17T00:54:15.231Z,100949.75
2022-10-17T00:56:43.926Z,100938.81
2022-10-17T00:59:13.797Z,100944.13
2022-10-17T01:01:43.140Z,100932.91
2022-10-17T01:04:10.676Z,100922.69
2022-10-17T01:06:40.187Z,100934.00
2022-10-17T01:09:07.666Z,100922.69
2022-10-17T01:12:04.168Z,100923.56
2022-10-17T01:14:56.358Z,100922.50
2022-10-17T01:17:35.951Z,100916.88
2022-10-17T01:20:26.512Z,100900.13
2022-10-17T01:23:16.874Z,100911.38
2022-10-17T01:26:23.144Z,100889.41
2022-10-17T01:29:15.559Z,100880.06
2022-10-17T01:31:49.077Z,100890.88
2022-10-17T01:34:36.188Z,100882.50
2022-10-17T01:37:16.386Z,100877.69
2022-10-17T01:39:53.120Z,100893.00
2022-10-17T01:42:27.678Z,100884.56
2022-10-17T01:45:10.796Z,100878.88
2022-10-17T01:47:41.142Z,100880.44
2022-10-17T01:50:18.818Z,100881.44
2022-10-17T01:52:53.139Z,100869.63
2022-10-17T01:55:32.764Z,100859.69
2022-10-17T01:58:34.898Z,100859.31
2022-10-17T02:01:06.655Z,100857.13
2022-10-17T02:03:35.348Z,100853.78
2022-10-17T02:06:02.903Z,100857.66
2022-10-17T02:08:43.237Z,100854.81
2022-10-17T02:11:25.336Z,100853.22
2022-10-17T02:17:00.061Z,100877.03
2022-10-17T02:19:55.043Z,100862.78
2022-10-17T02:22:31.819Z,100862.94
2022-10-17T02:25:12.979Z,100852.44
2022-10-17T02:28:15.924Z,100854.66
2022-10-17T02:30:53.348Z,100859.31
2022-10-17T02:33:44.083Z,100858.22
2022-10-17T02:36:19.951Z,100852.94
2022-10-17T02:38:49.087Z,100845.25
2022-10-17T02:41:19.602Z,100853.22
2022-10-17T02:43:50.167Z,100852.22
2022-10-17T02:46:21.957Z,100842.00
2022-10-17T02:48:57.631Z,100829.72
2022-10-17T02:51:45.389Z,100835.03
2022-10-17T02:54:39.627Z,100815.84
2022-10-17T02:57:29.282Z,100822.72
2022-10-17T03:00:00.171Z,100817.59
2022-10-17T03:02:28.733Z,100808.25
2022-10-17T03:04:56.875Z,100809.75
2022-10-17T03:07:24.397Z,100804.81
2022-10-17T03:09:51.823Z,100802.06
2022-10-17T03:12:19.385Z,100813.97
2022-10-17T03:14:46.911Z,100800.13
2022-10-17T03:17:14.318Z,100813.28
2022-10-17T03:19:41.930Z,100808.25
2022-10-17T03:22:09.815Z,100800.41
2022-10-17T03:24:38.150Z,100787.31
2022-10-17T03:27:06.091Z,100776.50
2022-10-17T03:29:33.689Z,100773.66
2022-10-17T03:32:02.779Z,100768.13
2022-10-17T03:34:30.302Z,100769.22
2022-10-17T03:36:57.733Z,100749.56
2022-10-17T03:39:27.643Z,100735.13
2022-10-17T03:41:55.178Z,100764.81
2022-10-17T03:44:22.679Z,100761.59
2022-10-17T03:46:50.233Z,100750.75
2022-10-17T03:49:18.446Z,100759.03
2022-10-17T03:51:46.104Z,100750.16
2022-10-17T03:54:15.763Z,100752.81
2022-10-17T03:56:44.027Z,100753.22
2022-10-17T03:59:15.495Z,100743.06
2022-10-17T04:01:46.724Z,100756.66
2022-10-17T04:04:14.470Z,100738.09
2022-10-17T04:06:41.897Z,100759.31
2022-10-17T04:09:12.932Z,100723.03
2022-10-17T04:11:52.724Z,100732.88
2022-10-17T04:14:21.585Z,100727.94
2022-10-17T04:16:49.098Z,100738.69
2022-10-17T04:19:20.879Z,100736.88
2022-10-17T04:21:48.673Z,100736.50
2022-10-17T04:24:16.535Z,100738.28
2022-10-17T04:27:04.794Z,100734.94
2022-10-17T04:29:34.610Z,100722.94
2022-10-17T04:32:10.765Z,100710.44
2022-10-17T04:34:50.243Z,100696.19
2022-10-17T04:37:20.340Z,100703.97
2022-10-17T04:39:50.330Z,100712.50
2022-10-17T04:42:17.855Z,100705.25
2022-10-17T04:44:46.426Z,100701.09
2022-10-17T04:47:17.010Z,100702.78
2022-10-17T04:49:45.131Z,100698.75
2022-10-17T04:52:16.238Z,100681.84
2022-10-17T04:54:45.444Z,100693.13
2022-10-17T04:57:14.891Z,100690.06
2022-10-17T04:59:48.624Z,100689.00
2022-10-17T05:02:27.999Z,100676.63
2022-10-17T05:04:56.416Z,100698.13
2022-10-17T05:07:24.503Z,100694.13
2022-10-17T05:10:18.238Z,100696.75
2022-10-17T05:12:49.433Z,100693.41
2022-10-17T05:15:19.114Z,100676.06
2022-10-17T05:17:46.851Z,100676.88
2022-10-17T05:20:14.372Z,100686.78
2022-10-17T05:22:42.498Z,100688.94
2022-10-17T05:25:11.812Z,100665.59
2022-10-17T05:27:40.056Z,100667.69
2022-10-17T05:30:10.080Z,100649.91
2022-10-17T05:32:39.019Z,100646.09
2022-10-17T05:35:06.967Z,100672.72
2022-10-17T05:37:34.615Z,100673.09
2022-10-17T05:40:04.085Z,100674.41
2022-10-17T05:42:32.355Z,100669.38
2022-10-17T05:45:00.298Z,100666.22
2022-10-17T05:47:28.413Z,100642.59
2022-10-17T05:49:56.260Z,100638.41
2022-10-17T05:52:31.697Z,100633.75
2022-10-17T05:55:10.897Z,100602.84
2022-10-17T05:57:39.631Z,100609.16
2022-10-17T06:00:11.662Z,100623.31
2022-10-17T06:02:43.482Z,100633.31
2022-10-17T06:05:14.610Z,100635.44
2022-10-17T06:07:42.704Z,100626.88
2022-10-17T06:10:13.004Z,100636.25
2022-10-17T06:12:40.663Z,100615.34
2022-10-17T06:15:08.911Z,100621.84
2022-10-17T06:17:36.718Z,100609.34
2022-10-17T06:20:05.023Z,100624.53
2022-10-17T06:22:33.241Z,100605.84
2022-10-17T06:25:02.334Z,100614.06
2022-10-17T06:27:30.560Z,100623.06
2022-10-17T06:29:58.120Z,100627.56
2022-10-17T06:32:25.645Z,100622.63
2022-10-17T06:34:53.080Z,100622.19
2022-10-17T06:37:20.644Z,100619.63
2022-10-17T06:39:48.656Z,100632.00
2022-10-17T06:42:20.671Z,100641.88
2022-10-17T06:45:09.215Z,100617.44
2022-10-17T06:47:41.762Z,100614.44
2022-10-17T06:50:26.725Z,100599.16
2022-10-17T06:53:11.571Z,100581.00
2022-10-17T06:56:01.501Z,100585.44
2022-10-17T06:58:49.525Z,100579.94
2022-10-17T07:01:31.505Z,100591.25
2022-10-17T07:04:01.274Z,100602.53
2022-10-17T07:06:30.394Z,100578.88
2022-10-17T07:09:02.862Z,100574.63
2022-10-17T07:11:30.498Z,100588.69
2022-10-17T07:13:58.022Z,100581.38
2022-10-17T07:16:28.115Z,100588.78
2022-10-17T07:19:03.809Z,100575.84
2022-10-17T07:21:38.949Z,100584.28
2022-10-17T07:24:08.738Z,100573.13
2022-10-17T07:26:36.444Z,100559.56
2022-10-17T07:29:06.463Z,100572.16
2022-10-17T07:31:45.696Z,100570.47
2022-10-17T07:34:13.418Z,100561.09
2022-10-17T07:36:41.271Z,100574.53
2022-10-17T07:39:09.879Z,100557.06
2022-10-17T07:41:38.704Z,100559.06
2022-10-17T07:44:07.531Z,100564.75
2022-10-17T07:46:40.801Z,100567.38
2022-10-17T07:49:08.895Z,100568.38
2022-10-17T07:51:36.657Z,100568.59
2022-10-17T07:54:06.057Z,100570.53
2022-10-17T07:56:33.643Z,100571.31
2022-10-17T07:59:03.784Z,100556.72
2022-10-17T08:01:34.255Z,100569.53
2022-10-17T08:04:01.707Z,100554.66
2022-10-17T08:06:38.550Z,100570.69
2022-10-17T08:09:49.700Z,100559.63
2022-10-17T08:20:29.587Z,100529.53
2022-10-17T08:27:59.470Z,100546.59
2022-10-17T08:39:29.005Z,100552.22
2022-10-17T08:42:55.584Z,100554.78
2022-10-17T08:46:05.950Z,100538.25
2022-10-17T08:49:17.686Z,100538.72
2022-10-17T08:56:49.019Z,100531.31
2022-10-17T08:59:59.478Z,100566.88
2022-10-17T09:02:58.827Z,100566.06
2022-10-17T09:05:37.342Z,100568.41
2022-10-17T09:08:21.172Z,100552.31
2022-10-17T09:10:58.239Z,100538.28
2022-10-17T09:13:31.213Z,100550.94
2022-10-17T09:16:11.446Z,100552.53
2022-10-17T09:18:47.928Z,100542.00
2022-10-17T09:21:25.409Z,100541.13
2022-10-17T09:24:08.905Z,100543.81
2022-10-17T09:26:39.460Z,100548.34
2022-10-17T09:29:17.767Z,100541.53
2022-10-17T09:32:17.565Z,100558.94
2022-10-17T09:34:45.522Z,100563.31
2022-10-17T09:37:15.619Z,100570.13
2022-10-17T09:39:44.258Z,100558.41
2022-10-17T09:42:15.578Z,100543.38
2022-10-17T09:44:54.674Z,100531.69
2022-10-17T09:47:47.254Z,100515.75
2022-10-17T09:50:26.368Z,100530.78
2022-10-17T09:52:55.749Z,100532.63
2022-10-17T09:55:49.465Z,100527.34
2022-10-17T09:58:16.970Z,100516.47
2022-10-17T10:00:47.675Z,100518.09
2022-10-17T10:03:25.122Z,100512.97
2022-10-17T10:06:08.050Z,100498.81
2022-10-17T10:08:55.769Z,100494.72
2022-10-17T10:11:43.589Z,100498.53
2022-10-17T10:14:13.706Z,100491.22
2022-10-17T10:16:43.980Z,100480.72
2022-10-17T10:19:34.554Z,100489.19
2022-10-17T10:22:14.652Z,100477.59
2022-10-17T10:24:42.414Z,100486.94
2022-10-17T10:27:18.216Z,100481.56
2022-10-17T10:29:53.157Z,100473.78
2022-10-17T10:32:22.629Z,100457.38
2022-10-17T10:34:54.816Z,100452.47
2022-10-17T10:37:40.111Z,100450.38
2022-10-17T10:40:18.688Z,100455.00
2022-10-17T10:42:55.296Z,100439.31
2022-10-17T10:48:32.823Z,100452.59
2022-10-17T10:51:12.582Z,100466.81
2022-10-17T10:53:53.506Z,100454.75
2022-10-17T10:56:22.528Z,100458.69
2022-10-17T10:59:08.496Z,100443.06
2022-10-17T11:01:44.989Z,100419.97
2022-10-17T11:04:20.443Z,100429.13
2022-10-17T11:06:51.371Z,100422.88
2022-10-17T11:09:30.072Z,100426.38
2022-10-17T11:12:34.180Z,100442.28
2022-10-17T11:15:19.675Z,100421.44
2022-10-17T11:17:59.769Z,100414.47
2022-10-17T11:20:38.342Z,100413.50
2022-10-17T11:23:21.576Z,100405.94
2022-10-17T11:25:51.847Z,100437.03
2022-10-17T11:28:22.336Z,100431.84
2022-10-17T11:30:56.313Z,100428.00
2022-10-17T11:34:07.164Z,100429.69
2022-10-17T11:36:40.548Z,100424.81
2022-10-17T11:39:15.241Z,100436.09
2022-10-17T11:41:44.976Z,100433.53
2022-10-17T11:44:32.290Z,100435.34
2022-10-17T11:47:14.450Z,100418.81
2022-10-17T11:49:50.742Z,100408.97
2022-10-17T11:52:54.911Z,100413.28
2022-10-17T11:55:23.594Z,100401.25
2022-10-17T11:58:18.552Z,100394.59
2022-10-17T12:00:48.883Z,100393.25
2022-10-17T12:03:49.302Z,100383.69
2022-10-17T12:06:20.335Z,100382.81
2022-10-17T12:09:26.203Z,100383.22
2022-10-17T12:12:02.445Z,100371.38
2022-10-17T12:14:48.708Z,100371.47
2022-10-17T12:17:39.235Z,100380.09
2022-10-17T12:20:24.617Z,100385.63
2022-10-17T12:23:13.048Z,100367.84
2022-10-17T12:25:52.918Z,100362.41
2022-10-17T12:28:44.853Z,100367.63
2022-10-17T12:31:19.216Z,100363.44
2022-10-17T12:33:46.639Z,100355.34
2022-10-17T12:36:17.299Z,100354.63
2022-10-17T12:38:49.877Z,100356.97
2022-10-17T12:41:38.150Z,100358.88
2022-10-17T12:44:14.974Z,100375.94
2022-10-17T12:46:52.647Z,100397.50
2022-10-17T12:49:38.494Z,100392.03
2022-10-17T12:52:48.221Z,100387.38
2022-10-17T12:55:20.148Z,100369.44
2022-10-17T12:57:49.480Z,100387.13
2022-10-17T13:00:22.399Z,100408.16
2022-10-17T13:02:54.770Z,100417.34
2022-10-17T13:05:30.008Z,100414.31
2022-10-17T13:08:00.970Z,100412.22
2022-10-17T13:10:31.061Z,100420.72
2022-10-17T13:13:15.948Z,100429.47
2022-10-17T13:15:51.594Z,100457.16
2022-10-17T13:18:28.039Z,100466.78
2022-10-17T13:21:05.460Z,100457.34
2022-10-17T13:23:38.062Z,100467.81
2022-10-17T13:26:31.944Z,100475.13
2022-10-17T13:29:11.354Z,100478.56
2022-10-17T13:31:41.352Z,100471.19
2022-10-17T13:34:21.148Z,100475.03
2022-10-17T13:36:53.575Z,100450.13
2022-10-17T13:39:38.296Z,100433.47
2022-10-17T13:42:39.507Z,100463.47
2022-10-17T13:45:19.096Z,100451.72
2022-10-17T13:47:47.269Z,100438.72
2022-10-17T13:50:43.543Z,100439.13
2022-10-17T13:53:33.458Z,100417.81
2022-10-17T13:56:26.470Z,100435.34
2022-10-17T13:58:51.320Z,100424.06
2022-10-17T14:01:21.324Z,100416.38
2022-10-17T14:03:57.015Z,100401.75
2022-10-17T14:06:30.908Z,100410.44
2022-10-17T14:09:01.894Z,100395.63
2022-10-17T14:11:41.688Z,100412.53
2022-10-17T14:14:22.296Z,100396.91
2022-10-17T14:16:50.059Z,100400.94
2022-10-17T14:19:30.655Z,100389.06
2022-10-17T14:22:27.070Z,100385.28
2022-10-17T14:24:58.023Z,100394.75
2022-10-17T14:27:38.312Z,100385.88
2022-10-17T14:31:01.687Z,100390.22
2022-10-17T14:33:23.438Z,100392.59
2022-10-17T14:35:53.005Z,100404.38
2022-10-17T14:38:21.680Z,100409.50
2022-10-17T14:41:04.805Z,100399.66
2022-10-17T14:43:44.647Z,100400.22
2022-10-17T14:46:15.964Z,100397.78
2022-10-17T14:48:43.909Z,100407.50
2022-10-17T14:51:17.042Z,100396.09
2022-10-17T14:54:05.458Z,100412.88
2022-10-17T14:56:42.145Z,100408.69
2022-10-17T14:59:21.429Z,100398.91
2022-10-17T15:01:53.149Z,100402.44
2022-10-17T15:04:20.827Z,100398.59
2022-10-17T15:06:54.564Z,100403.88
2022-10-17T15:09:23.710Z,100389.88
2022-10-17T15:11:51.110Z,100408.91
2022-10-17T15:14:18.574Z,100419.22
2022-10-17T15:16:46.044Z,100420.91
2022-10-17T15:19:14.077Z,100416.44
2022-10-17T15:21:46.164Z,100414.03
2022-10-17T15:24:15.878Z,100412.94
2022-10-17T15:26:43.495Z,100418.81
2022-10-17T15:29:15.535Z,100405.59
2022-10-17T15:31:43.034Z,100420.28
2022-10-17T15:34:10.435Z,100427.22
2022-10-17T15:36:43.018Z,100414.91
2022-10-17T15:39:10.839Z,100426.16
2022-10-17T15:41:38.244Z,100425.56
2022-10-17T15:44:05.784Z,100426.16
2022-10-17T15:46:35.066Z,100426.63
2022-10-17T15:49:05.874Z,100437.56
2022-10-17T15:51:33.650Z,100437.50
2022-10-17T15:54:01.786Z,100431.50
2022-10-17T15:56:41.484Z,100453.47
2022-10-17T15:59:19.008Z,100449.72
2022-10-17T16:01:46.348Z,100442.91
2022-10-17T16:04:15.598Z,100434.25
2022-10-17T16:06:43.611Z,100432.56
2022-10-17T16:09:11.438Z,100428.19
2022-10-17T16:11:41.945Z,100420.31
2022-10-17T16:14:15.539Z,100425.91
2022-10-17T16:16:43.412Z,100426.09
2022-10-17T16:19:14.259Z,100437.44
2022-10-17T16:21:41.931Z,100427.03
2022-10-17T16:24:13.214Z,100429.13
2022-10-17T16:26:41.502Z,100429.44
2022-10-17T16:29:10.234Z,100428.06
2022-10-17T16:31:42.096Z,100425.66
2022-10-17T16:34:13.286Z,100433.28
2022-10-17T16:36:41.359Z,100426.59
2022-10-17T16:39:09.317Z,100423.56
2022-10-17T16:41:38.818Z,100437.91
2022-10-17T16:44:08.410Z,100439.75
2022-10-17T16:46:37.398Z,100439.13
2022-10-17T16:49:05.784Z,100441.00
2022-10-17T16:51:36.593Z,100439.56
2022-10-17T16:54:04.797Z,100430.19
2022-10-17T16:56:33.072Z,100431.88
2022-10-17T16:59:01.778Z,100441.19
2022-10-17T17:01:30.263Z,100446.78
2022-10-17T17:03:58.314Z,100439.97
2022-10-17T17:06:28.597Z,100449.16
2022-10-17T17:08:57.492Z,100461.88
2022-10-17T17:11:27.563Z,100464.53
2022-10-17T17:13:57.268Z,100465.44
2022-10-17T17:16:26.904Z,100451.19
2022-10-17T17:18:56.850Z,100451.50
2022-10-17T17:21:25.109Z,100448.94
2022-10-17T17:23:52.864Z,100458.50
2022-10-17T17:26:22.315Z,100443.97
2022-10-17T17:28:51.326Z,100433.03
2022-10-17T17:31:27.999Z,100429.44
2022-10-17T17:36:32.070Z,100423.94
2022-10-17T17:39:01.554Z,100436.53
2022-10-17T17:41:29.155Z,100430.38
2022-10-17T17:43:57.280Z,100435.34
2022-10-17T17:46:25.641Z,100438.84
2022-10-17T17:48:54.495Z,100441.66
2022-10-17T17:51:28.313Z,100438.09
2022-10-17T17:53:57.492Z,100438.53
2022-10-17T17:56:27.628Z,100432.59
2022-10-17T17:58:57.545Z,100433.47
2022-10-17T18:01:37.896Z,100439.72
2022-10-17T18:04:08.786Z,100432.06
2022-10-17T18:06:38.001Z,100428.56
2022-10-17T18:09:07.127Z,100437.78
2022-10-17T18:11:35.594Z,100421.19
2022-10-17T18:14:06.049Z,100430.97
2022-10-17T18:16:35.415Z,100419.06
2022-10-17T18:19:06.785Z,100449.31
2022-10-17T18:21:35.899Z,100438.84
2022-10-17T18:24:04.987Z,100446.75
2022-10-17T18:26:33.074Z,100444.97
2022-10-17T18:29:01.015Z,100456.00
2022-10-17T18:31:32.162Z,100445.41
2022-10-17T18:34:02.784Z,100448.72
2022-10-17T18:36:31.910Z,100456.19
2022-10-17T18:39:00.643Z,100452.59
2022-10-17T18:41:28.342Z,100460.50
2022-10-17T18:43:57.043Z,100469.41
2022-10-17T18:46:30.196Z,100454.13
2022-10-17T18:48:58.106Z,100476.16
2022-10-17T18:51:26.355Z,100475.69
2022-10-17T18:54:02.402Z,100480.19
2022-10-17T18:56:31.358Z,100476.66
2022-10-17T18:58:58.867Z,100480.72
2022-10-17T19:01:27.429Z,100480.50
2022-10-17T19:03:57.041Z,100476.31
2022-10-17T19:06:27.768Z,100474.28
2022-10-17T19:08:55.274Z,100478.66
2022-10-17T19:11:25.479Z,100460.75
2022-10-17T19:13:54.146Z,100476.47
2022-10-17T19:16:25.337Z,100488.50
2022-10-17T19:18:55.940Z,100477.16
2022-10-17T19:21:24.475Z,100483.13
2022-10-17T19:23:57.790Z,100474.66
2022-10-17T19:26:27.783Z,100480.31
2022-10-17T19:28:56.103Z,100471.34
2022-10-17T19:31:27.289Z,100480.59
2022-10-17T19:33:56.370Z,100477.41
2022-10-17T19:36:30.405Z,100475.56
2022-10-17T19:39:08.607Z,100484.38
2022-10-17T19:41:39.181Z,100486.78
2022-10-17T19:44:07.003Z,100478.00
2022-10-17T19:46:34.545Z,100482.25
2022-10-17T19:49:04.455Z,100475.97
2022-10-17T19:51:53.071Z,100475.91
2022-10-17T19:54:56.853Z,100472.53
2022-10-17T19:58:17.204Z,100475.72
2022-10-17T20:01:05.427Z,100480.47
2022-10-17T20:08:05.319Z,100479.44
2022-10-17T20:18:49.625Z,100481.19
2022-10-17T20:22:15.119Z,100481.84
2022-10-17T20:29:25.197Z,100472.97
2022-10-17T20:32:14.314Z,100504.69
2022-10-17T20:34:41.793Z,100490.00
2022-10-17T20:37:09.180Z,100492.56
2022-10-17T20:39:36.575Z,100490.75
2022-10-17T20:42:03.997Z,100496.19
2022-10-17T20:44:31.398Z,100486.66
2022-10-17T20:47:02.114Z,100490.75
2022-10-17T20:49:31.242Z,100493.38
2022-10-17T20:52:47.863Z,100493.56
2022-10-17T20:55:34.001Z,100497.28
2022-10-17T20:58:01.414Z,100500.84
2022-10-17T21:00:29.004Z,100503.41
2022-10-17T21:05:28.927Z,100490.59
2022-10-17T21:08:11.442Z,100493.09
2022-10-17T21:10:38.969Z,100494.59
2022-10-17T21:13:06.363Z,100496.28
2022-10-17T21:15:33.879Z,100494.59
2022-10-17T21:18:01.368Z,100493.97
2022-10-17T21:20:37.828Z,100493.22
2022-10-17T21:23:23.107Z,100471.50
2022-10-17T21:25:50.675Z,100477.78
2022-10-17T21:28:18.042Z,100474.00
2022-10-17T21:30:45.439Z,100482.66
2022-10-17T21:33:12.866Z,100479.59
2022-10-17T21:35:40.547Z,100468.22
2022-10-17T21:38:07.962Z,100471.84
2022-10-17T21:40:35.463Z,100464.78
2022-10-17T21:43:02.868Z,100455.25
2022-10-17T21:45:30.270Z,100463.97
2022-10-17T21:48:13.582Z,100465.50
2022-10-17T21:50:41.659Z,100474.88
2022-10-17T21:53:09.268Z,100473.53
2022-10-17T21:55:37.673Z,100474.22
2022-10-17T21:58:05.367Z,100462.84
2022-10-17T22:00:32.950Z,100468.06
2022-10-17T22:03:01.231Z,100468.88
2022-10-17T22:05:30.360Z,100463.56
2022-10-17T22:07:57.838Z,100460.13
2022-10-17T22:10:25.454Z,100466.31
2022-10-17T22:12:53.019Z,100448.75
2022-10-17T22:15:20.435Z,100455.97
2022-10-17T22:17:47.816Z,100456.78
2022-10-17T22:20:15.307Z,100436.91
2022-10-17T22:22:42.705Z,100449.88
2022-10-17T22:25:10.140Z,100452.34
2022-10-17T22:27:37.756Z,100449.78
2022-10-17T22:30:05.773Z,100442.03
2022-10-17T22:32:33.266Z,100450.91
2022-10-17T22:35:00.650Z,100450.84
2022-10-17T22:37:28.332Z,100454.50
2022-10-17T22:39:55.863Z,100451.25
2022-10-17T22:42:23.420Z,100446.00
2022-10-17T22:44:50.863Z,100450.44
2022-10-17T22:47:18.251Z,100451.53
2022-10-17T22:49:45.632Z,100453.63
2022-10-17T22:52:13.115Z,100443.16
2022-10-17T22:54:40.515Z,100445.94
2022-10-17T22:57:10.404Z,100446.19
2022-10-17T22:59:37.932Z,100432.63
2022-10-17T23:02:05.408Z,100431.72
2022-10-17T23:04:33.529Z,100434.53
2022-10-17T23:07:00.923Z,100436.31
2022-10-17T23:09:28.621Z,100438.31
2022-10-17T23:11:56.022Z,100427.06
2022-10-17T23:14:23.497Z,100434.13
2022-10-17T23:16:51.002Z,100441.00
2022-10-17T23:19:18.578Z,100397.19
2022-10-17T23:21:46.076Z,100416.03
2022-10-17T23:24:13.598Z,100434.25
2022-10-17T23:26:40.999Z,100429.94
2022-10-17T23:29:08.451Z,100431.41
2022-10-17T23:31:35.892Z,100431.31
2022-10-17T23:34:03.469Z,100421.78
2022-10-17T23:39:03.758Z,100432.94
2022-10-17T23:41:31.420Z,100433.59
2022-10-17T23:43:59.230Z,100434.09
2022-10-17T23:46:26.668Z,100435.78
2022-10-17T23:48:54.184Z,100445.28
2022-10-17T23:51:21.838Z,100438.91
2022-10-17T23:53:49.619Z,100425.88
2022-10-17T23:56:17.058Z,100424.25
2022-10-17T23:58:44.592Z,100424.25
